Jennerstown, Pennsylvania
Current Conditions -  °F | °C
As of 5:15 PM on Thursday 18 Dec 2014 (Local Time) from K2G9 Reporting Station
Overcast Overcast  
Wind Chill: 12°   Ceiling: 1000
Heat Index: 23°   Visibility: 10mi
Dew Point: 19°   Wind: 12mph
Humidity: 86%   Direction: 290°WNW
Pressure: 30.06"   Gusts: NA
Location:  40.16°N, 79.07°W
Report Text: K2G9 182215Z AUTO 29010KT 10SM BKN010 OVC015 M05/M07 A3006 RMK AO2
Loading
Personal Weather Stations






























Interactive Weather Map New forecast layout! Learn more

10-Day Weather Forecast

Advertisements
Track Severe Weather on mobile